createdAt,value
2018-09-10T00:02:15.582Z,99.90
2018-09-10T00:04:49.360Z,99.90
2018-09-10T00:07:23.868Z,99.90
2018-09-10T00:09:57.640Z,99.90
2018-09-10T00:12:31.352Z,99.90
2018-09-10T00:15:05.135Z,99.90
2018-09-10T00:23:38.837Z,99.90
2018-09-10T00:26:12.612Z,99.90
2018-09-10T00:28:46.433Z,99.90
2018-09-10T00:31:20.248Z,99.90
2018-09-10T00:33:53.969Z,99.90
2018-09-10T00:36:27.804Z,99.90
2018-09-10T00:39:01.689Z,99.90
2018-09-10T00:47:35.329Z,99.90
2018-09-10T00:53:09.772Z,99.90
2018-09-10T00:55:43.542Z,99.90
2018-09-10T00:58:17.280Z,99.90
2018-09-10T01:00:51.053Z,99.90
2018-09-10T01:03:24.866Z,99.90
2018-09-10T01:05:59.408Z,99.90
2018-09-10T01:08:33.933Z,99.90
2018-09-10T01:11:07.763Z,99.90
2018-09-10T01:13:41.613Z,99.90
2018-09-10T01:16:15.445Z,99.90
2018-09-10T01:18:49.287Z,99.90
2018-09-10T01:24:22.877Z,99.90
2018-09-10T01:26:56.577Z,99.90
2018-09-10T01:32:29.989Z,99.90
2018-09-10T01:35:04.511Z,99.90
2018-09-10T01:37:39.191Z,99.90
2018-09-10T01:43:14.441Z,99.90
2018-09-10T01:45:48.110Z,99.90
2018-09-10T01:48:21.905Z,99.90
2018-09-10T01:53:55.412Z,99.90
2018-09-10T01:56:29.322Z,99.90
2018-09-10T01:59:02.959Z,99.90
2018-09-10T02:01:37.651Z,99.90
2018-09-10T02:04:12.278Z,99.90
2018-09-10T02:06:46.739Z,99.90
2018-09-10T02:09:20.512Z,99.90
2018-09-10T02:11:54.300Z,99.90
2018-09-10T02:17:28.651Z,99.90
2018-09-10T02:20:02.488Z,99.90
2018-09-10T02:25:36.120Z,99.90
2018-09-10T02:31:09.279Z,99.90
2018-09-10T02:33:43.169Z,99.90
2018-09-10T02:36:18.547Z,99.90
2018-09-10T02:38:52.315Z,99.90
2018-09-10T02:41:26.770Z,99.90
2018-09-10T02:44:00.537Z,99.90
2018-09-10T02:46:34.348Z,99.90
2018-09-10T02:49:08.052Z,99.90
2018-09-10T03:00:40.947Z,99.90
2018-09-10T03:03:14.712Z,99.90
2018-09-10T03:05:48.496Z,99.90
2018-09-10T03:11:22.818Z,99.90
2018-09-10T03:13:57.415Z,99.90
2018-09-10T03:16:31.137Z,99.90
2018-09-10T03:19:04.875Z,99.90
2018-09-10T03:21:39.435Z,99.90
2018-09-10T03:33:11.979Z,99.90
2018-09-10T03:35:45.728Z,99.90
2018-09-10T03:38:19.537Z,99.90
2018-09-10T03:40:54.191Z,99.90
2018-09-10T03:43:28.897Z,99.90
2018-09-10T03:46:02.743Z,99.90
2018-09-10T03:48:36.619Z,99.90
2018-09-10T03:54:10.905Z,99.90
2018-09-10T03:56:44.682Z,99.90
2018-09-10T03:59:18.552Z,99.90
2018-09-10T04:01:52.247Z,99.90
2018-09-10T04:04:26.079Z,99.90
2018-09-10T04:06:59.944Z,99.90
2018-09-10T04:09:33.827Z,99.90
2018-09-10T04:15:07.448Z,99.90
2018-09-10T04:17:41.200Z,99.90
2018-09-10T04:23:19.796Z,99.90
2018-09-10T04:25:56.371Z,99.90
2018-09-10T04:28:30.227Z,99.90
2018-09-10T04:31:04.118Z,99.90
2018-09-10T04:33:37.881Z,99.90
2018-09-10T04:36:11.729Z,99.90
2018-09-10T04:44:44.306Z,99.90
2018-09-10T04:47:22.339Z,99.90
2018-09-10T04:49:57.416Z,99.90
2018-09-10T04:52:32.144Z,99.90
2018-09-10T04:55:06.178Z,99.90
2018-09-10T04:57:40.515Z,99.90
2018-09-10T05:00:15.497Z,99.90
2018-09-10T05:02:49.479Z,99.90
2018-09-10T05:05:26.195Z,99.90
2018-09-10T05:08:00.174Z,99.90
2018-09-10T05:22:15.706Z,99.90
2018-09-10T05:24:55.637Z,99.90
2018-09-10T05:33:44.483Z,99.90
2018-09-10T05:36:18.340Z,99.90
2018-09-10T05:41:52.038Z,99.90
2018-09-10T05:44:25.895Z,99.90
2018-09-10T05:46:59.816Z,99.90
2018-09-10T05:52:32.633Z,99.90
2018-09-10T05:55:16.940Z,99.90
2018-09-10T05:57:51.078Z,99.90
2018-09-10T06:00:24.863Z,99.90
2018-09-10T06:05:57.492Z,99.90
2018-09-10T06:08:31.336Z,99.90
2018-09-10T06:14:04.762Z,99.90
2018-09-10T06:16:38.530Z,99.90
2018-09-10T06:22:12.183Z,99.90
2018-09-10T06:24:46.564Z,99.90
2018-09-10T06:27:20.543Z,99.90
2018-09-10T06:29:54.186Z,99.90
2018-09-10T06:32:28.516Z,99.90
2018-09-10T06:35:02.163Z,99.90
2018-09-10T06:37:36.868Z,99.90
2018-09-10T06:40:10.465Z,99.90
2018-09-10T06:42:44.298Z,99.90
2018-09-10T06:45:18.884Z,99.90
2018-09-10T06:47:52.831Z,99.90
2018-09-10T06:50:26.567Z,99.90
2018-09-10T06:53:00.420Z,99.90
2018-09-10T06:55:35.108Z,99.90
2018-09-10T06:58:08.960Z,99.90
2018-09-10T07:03:42.624Z,99.90
2018-09-10T07:06:16.452Z,99.90
2018-09-10T07:08:50.300Z,99.90
2018-09-10T07:11:24.156Z,99.90
2018-09-10T07:13:58.698Z,99.90
2018-09-10T07:16:32.332Z,99.90
2018-09-10T07:19:06.207Z,99.90
2018-09-10T07:21:41.792Z,99.90
2018-09-10T07:24:16.358Z,99.90
2018-09-10T07:26:50.055Z,99.90
2018-09-10T07:32:22.759Z,99.90
2018-09-10T07:34:59.016Z,99.90
2018-09-10T07:37:33.647Z,99.90
2018-09-10T07:40:12.175Z,99.90
2018-09-10T07:42:46.789Z,99.90
2018-09-10T07:45:43.849Z,99.90
2018-09-10T07:48:21.577Z,99.90
2018-09-10T07:56:53.997Z,99.90
2018-09-10T07:59:27.821Z,99.90
2018-09-10T08:08:00.828Z,99.90
2018-09-10T08:10:35.555Z,99.90
2018-09-10T08:13:09.201Z,99.90
2018-09-10T08:15:42.971Z,99.90
2018-09-10T08:18:16.812Z,99.90
2018-09-10T08:20:50.656Z,99.90
2018-09-10T08:23:27.547Z,99.90
2018-09-10T08:26:01.581Z,99.90
2018-09-10T08:28:41.471Z,99.90
2018-09-10T08:31:16.020Z,99.90
2018-09-10T08:33:50.528Z,99.90
2018-09-10T08:36:29.061Z,99.90
2018-09-10T08:39:02.889Z,99.90
2018-09-10T08:44:35.619Z,99.90
2018-09-10T08:47:10.404Z,99.90
2018-09-10T08:49:44.238Z,99.90
2018-09-10T08:55:17.411Z,99.90
2018-09-10T09:06:51.699Z,99.90
2018-09-10T09:09:25.479Z,99.90
2018-09-10T09:12:00.338Z,99.90
2018-09-10T09:14:37.204Z,99.90
2018-09-10T09:17:11.687Z,99.90
2018-09-10T09:25:44.571Z,99.90
2018-09-10T09:28:28.902Z,99.90
2018-09-10T09:31:02.693Z,99.90
2018-09-10T09:33:36.343Z,99.50
2018-09-10T09:36:10.209Z,97.80
2018-09-10T09:38:52.595Z,97.70
2018-09-10T09:50:25.736Z,97.10
2018-09-10T09:55:58.693Z,97.40
2018-09-10T10:04:23.862Z,95.90
2018-09-10T10:06:57.773Z,95.90
2018-09-10T10:09:31.909Z,96.50
2018-09-10T10:12:06.167Z,97.50
2018-09-10T10:14:40.116Z,96.90
2018-09-10T10:17:20.206Z,96.70
2018-09-10T10:19:54.019Z,96.70
2018-09-10T10:22:27.975Z,96.40
2018-09-10T10:25:02.168Z,95.50
2018-09-10T10:30:40.702Z,96.10
2018-09-10T10:33:16.973Z,96.30
2018-09-10T10:35:51.279Z,95.20
2018-09-10T10:38:25.483Z,94.90
2018-09-10T10:41:00.045Z,94.90
2018-09-10T10:46:33.250Z,94.60
2018-09-10T10:49:06.997Z,93.20
2018-09-10T10:51:41.604Z,92.80
2018-09-10T10:57:17.494Z,91.70
2018-09-10T10:59:52.166Z,90.50
2018-09-10T11:02:29.717Z,85.40
2018-09-10T11:08:02.998Z,86.10
2018-09-10T11:13:28.766Z,82.80
2018-09-10T11:19:08.648Z,82.10
2018-09-10T11:21:42.649Z,81.00
2018-09-10T11:24:16.557Z,80.30
2018-09-10T11:26:56.305Z,80.10
2018-09-10T11:35:43.499Z,79.40
2018-09-10T11:41:17.022Z,77.10
2018-09-10T11:46:52.077Z,76.60
2018-09-10T11:49:26.780Z,75.20
2018-09-10T11:52:00.442Z,75.10
2018-09-10T11:54:40.002Z,74.00
2018-09-10T11:57:14.066Z,70.20
2018-09-10T11:59:47.893Z,72.30
2018-09-10T12:05:22.345Z,66.90
2018-09-10T12:07:57.133Z,65.70
2018-09-10T12:10:31.905Z,67.60
2018-09-10T12:16:04.948Z,70.00
2018-09-10T12:18:38.828Z,67.40
2018-09-10T12:21:12.551Z,68.40
2018-09-10T12:23:46.416Z,67.70
2018-09-10T12:26:20.159Z,64.00
2018-09-10T12:34:38.461Z,63.40
2018-09-10T12:40:15.628Z,63.50
2018-09-10T12:45:34.316Z,61.70
2018-09-10T12:48:08.145Z,61.80
2018-09-10T12:53:43.228Z,61.20
2018-09-10T12:56:17.203Z,60.90
2018-09-10T13:01:50.732Z,59.30
2018-09-10T13:04:25.426Z,59.70
2018-09-10T13:06:59.264Z,59.70
2018-09-10T13:09:33.010Z,61.30
2018-09-10T13:12:08.616Z,61.80
2018-09-10T13:14:42.608Z,61.70
2018-09-10T13:17:17.280Z,60.90
2018-09-10T13:19:51.865Z,60.10
2018-09-10T13:22:27.599Z,60.10
2018-09-10T13:25:01.324Z,60.70
2018-09-10T13:27:35.158Z,61.30
2018-09-10T13:30:08.976Z,60.00
2018-09-10T13:32:42.784Z,59.60
2018-09-10T13:35:18.011Z,62.40
2018-09-10T13:37:51.841Z,61.70
2018-09-10T13:40:25.664Z,60.80
2018-09-10T13:42:59.414Z,61.70
2018-09-10T13:45:33.238Z,60.00
2018-09-10T13:48:07.068Z,60.00
2018-09-10T13:50:40.932Z,59.90
2018-09-10T13:56:15.823Z,59.50
2018-09-10T13:58:49.649Z,59.70
2018-09-10T14:04:22.938Z,59.10
2018-09-10T14:06:56.593Z,59.00
2018-09-10T14:09:30.380Z,58.90
2018-09-10T14:15:11.205Z,58.50
2018-09-10T14:17:51.189Z,58.30
2018-09-10T14:20:24.856Z,57.50
2018-09-10T14:22:58.476Z,57.40
2018-09-10T14:25:32.220Z,57.50
2018-09-10T14:31:05.683Z,57.10
2018-09-10T14:36:38.987Z,56.60
2018-09-10T14:39:12.855Z,57.20
2018-09-10T14:41:46.611Z,57.00
2018-09-10T14:44:20.465Z,56.40
2018-09-10T14:46:54.307Z,56.70
2018-09-10T14:49:32.670Z,56.40
2018-09-10T14:52:08.464Z,55.90
2018-09-10T14:54:45.058Z,56.10
2018-09-10T14:57:19.332Z,55.10
2018-09-10T15:05:51.678Z,55.20
2018-09-10T15:17:33.269Z,56.00
2018-09-10T15:20:07.344Z,55.00
2018-09-10T15:22:41.228Z,54.90
2018-09-10T15:28:14.758Z,54.40
2018-09-10T15:30:51.003Z,54.70
2018-09-10T15:36:10.754Z,54.90
2018-09-10T15:38:44.511Z,55.30
2018-09-10T15:41:18.421Z,55.50
2018-09-10T15:43:52.155Z,55.00
2018-09-10T15:46:26.055Z,54.30
2018-09-10T15:48:59.848Z,55.00
2018-09-10T15:51:33.600Z,55.00
2018-09-10T15:54:09.378Z,55.60
2018-09-10T15:56:43.321Z,55.20
2018-09-10T15:59:17.078Z,55.70
2018-09-10T16:07:49.608Z,54.60
2018-09-10T16:10:27.443Z,56.00
2018-09-10T16:13:02.170Z,54.80
2018-09-10T16:15:37.512Z,54.90
2018-09-10T16:18:12.593Z,54.80
2018-09-10T16:20:47.532Z,54.80
2018-09-10T16:23:22.619Z,55.50
2018-09-10T16:31:42.705Z,55.10
2018-09-10T16:37:07.675Z,54.50
2018-09-10T16:39:41.507Z,54.80
2018-09-10T16:42:15.331Z,54.20
2018-09-10T16:44:49.132Z,53.20
2018-09-10T16:47:22.923Z,53.40
2018-09-10T16:52:56.404Z,53.60
2018-09-10T16:55:30.173Z,53.10
2018-09-10T16:58:04.843Z,53.60
2018-09-10T17:00:38.512Z,53.60
2018-09-10T17:03:12.311Z,53.70
2018-09-10T17:05:46.081Z,54.10
2018-09-10T17:14:20.251Z,55.40
2018-09-10T17:16:54.079Z,56.90
2018-09-10T17:22:28.572Z,58.30
2018-09-10T17:25:02.471Z,59.30
2018-09-10T17:27:37.022Z,62.30
2018-09-10T17:30:11.576Z,63.00
2018-09-10T17:35:44.763Z,64.20
2018-09-10T17:41:18.201Z,65.90
2018-09-10T17:46:51.734Z,68.80
2018-09-10T17:49:25.370Z,66.80
2018-09-10T17:51:59.204Z,68.90
2018-09-10T17:54:32.963Z,68.30
2018-09-10T17:57:06.776Z,69.60
2018-09-10T17:59:40.626Z,69.60
2018-09-10T18:02:14.342Z,71.50
2018-09-10T18:04:48.136Z,71.30
2018-09-10T18:10:21.515Z,72.60
2018-09-10T18:12:55.388Z,71.90
2018-09-10T18:15:30.084Z,72.50
2018-09-10T18:18:03.854Z,72.60
2018-09-10T18:20:37.730Z,72.20
2018-09-10T18:23:11.498Z,73.30
2018-09-10T18:25:45.273Z,73.10
2018-09-10T18:28:18.992Z,74.00
2018-09-10T18:30:52.925Z,74.10
2018-09-10T18:33:26.909Z,75.90
2018-09-10T18:36:01.579Z,75.60
2018-09-10T18:41:35.078Z,75.10
2018-09-10T18:47:08.905Z,76.10
2018-09-10T18:49:46.680Z,76.40
2018-09-10T18:52:20.564Z,76.70
2018-09-10T18:54:54.431Z,78.80
2018-09-10T18:57:29.040Z,81.20
2018-09-10T19:06:01.558Z,81.10
2018-09-10T19:11:35.863Z,81.80
2018-09-10T19:17:08.452Z,82.20
2018-09-10T19:25:41.585Z,84.00
2018-09-10T19:28:15.335Z,86.80
2018-09-10T19:36:48.540Z,93.20
2018-09-10T19:39:22.335Z,95.00
2018-09-10T19:44:55.836Z,97.20
2018-09-10T19:47:29.722Z,97.90
2018-09-10T19:53:03.144Z,99.50
2018-09-10T19:55:37.720Z,99.90
2018-09-10T20:01:11.704Z,99.90
2018-09-10T20:03:46.284Z,99.90
2018-09-10T20:06:20.913Z,99.90
2018-09-10T20:11:49.641Z,99.90
2018-09-10T20:17:22.748Z,99.90
2018-09-10T20:19:56.597Z,99.90
2018-09-10T20:25:29.931Z,99.90
2018-09-10T20:28:03.749Z,99.90
2018-09-10T20:30:38.252Z,99.90
2018-09-10T20:33:12.095Z,99.90
2018-09-10T20:35:45.841Z,99.90
2018-09-10T20:41:23.982Z,99.90
2018-09-10T20:43:57.824Z,99.90
2018-09-10T20:46:31.640Z,99.90
2018-09-10T20:55:05.781Z,99.90
2018-09-10T20:57:39.500Z,99.90
2018-09-10T21:00:13.898Z,99.90
2018-09-10T21:02:47.722Z,99.90
2018-09-10T21:05:21.441Z,99.90
2018-09-10T21:07:55.245Z,99.90
2018-09-10T21:10:29.031Z,99.90
2018-09-10T21:13:02.723Z,99.90
2018-09-10T21:15:36.576Z,99.90
2018-09-10T21:18:10.386Z,99.90
2018-09-10T21:20:44.097Z,99.90
2018-09-10T21:23:18.722Z,99.90
2018-09-10T21:25:53.275Z,99.90
2018-09-10T21:28:27.138Z,99.90
2018-09-10T21:31:00.778Z,99.90
2018-09-10T21:33:34.549Z,99.90
2018-09-10T21:36:08.341Z,99.90
2018-09-10T21:38:42.169Z,99.90
2018-09-10T21:41:15.932Z,99.90
2018-09-10T21:43:50.556Z,99.90
2018-09-10T21:46:24.361Z,99.90
2018-09-10T21:48:58.984Z,99.90
2018-09-10T21:51:33.619Z,99.90
2018-09-10T21:54:07.504Z,99.90
2018-09-10T21:56:41.451Z,99.90
2018-09-10T21:59:15.176Z,99.90
2018-09-10T22:07:48.190Z,99.90
2018-09-10T22:10:22.032Z,99.90
2018-09-10T22:12:56.614Z,99.90
2018-09-10T22:15:43.884Z,99.90
2018-09-10T22:18:18.417Z,99.90
2018-09-10T22:20:52.096Z,99.90
2018-09-10T22:23:25.851Z,99.90
2018-09-10T22:26:00.468Z,99.90
2018-09-10T22:31:34.315Z,99.90
2018-09-10T22:34:07.957Z,99.90
2018-09-10T22:36:42.620Z,99.90
2018-09-10T22:39:19.304Z,99.90
2018-09-10T22:41:52.991Z,99.90
2018-09-10T22:44:26.748Z,99.90
2018-09-10T22:47:00.616Z,99.90
2018-09-10T22:49:34.420Z,99.90
2018-09-10T22:55:08.529Z,99.90
2018-09-10T22:57:42.367Z,99.90
2018-09-10T23:00:16.005Z,99.90
2018-09-10T23:02:49.795Z,99.90
2018-09-10T23:05:23.581Z,99.90
2018-09-10T23:07:57.247Z,99.90
2018-09-10T23:10:31.067Z,99.90
2018-09-10T23:13:04.892Z,99.90
2018-09-10T23:15:39.398Z,99.90
2018-09-10T23:18:13.070Z,99.90
2018-09-10T23:23:46.013Z,99.90
2018-09-10T23:26:19.669Z,99.90
2018-09-10T23:28:58.201Z,99.90
2018-09-10T23:34:30.840Z,99.90
2018-09-10T23:37:04.679Z,99.90
2018-09-10T23:39:38.305Z,99.90
2018-09-10T23:42:12.049Z,99.90
2018-09-10T23:44:45.681Z,99.90
2018-09-10T23:53:18.571Z,99.90
2018-09-10T23:55:53.128Z,99.90
2018-09-10T23:58:27.744Z,99.90
